Flight Track Log - Related Links

Times and Time Zones

All times are in EDT time to prevent confusion due to time zone crossing. See the UAL3728 flight status page for this flight to view local times or setup timezone preferences in your user account.

Time Position Orientation Groundspeed Altitude Reporting Facility
EDT Latitude Longitude Course Direction KTS MPH feet Rate Location/Type
Fri 07:00:59 PM 38.9500 -77.5167 123° Southeast 177 204 1,700  Level Potomac TRACON
Fri 07:01:59 PM 39.0000 -77.5667 322° Northwest 248 285 3,300 2,250 Climbing Potomac TRACON
Fri 07:02:59 PM 39.0500 -77.6500 308° West 280 322 6,200 2,745 Climbing Potomac TRACON
Fri 07:03:33 PM 39.0831 -77.6747 330° Northwest 283 326 7,600 2,400 Climbing Washington Center
Fri 07:04:00 PM 38.5331 -77.6910 128° Southeast  Level Estimated
Fri 07:04:34 PM 39.1425 -77.6014 44° Northeast 319 367 10,000  Level Washington Center
Fri 07:04:59 PM 39.1500 -77.5500 79° East 343 395 10,100 70 Climbing Potomac TRACON
Fri 07:05:00 PM 38.4295 -77.7484 123° Southeast  Level Estimated
Fri 07:06:00 PM 38.3258 -77.8056 123° Southeast  Level Estimated
Fri 07:06:00 PM 39.1500 -77.4167 90° East 391 450 10,100  Level Potomac TRACON
Fri 07:07:00 PM 39.1333 -77.2833 99° East 385 443 10,400 1,550 Climbing Potomac TRACON
Fri 07:08:00 PM 39.1000 -77.1500 108° East 369 425 13,200 2,350 Climbing Potomac TRACON
Fri 07:09:00 PM 39.0500 -77.0333 119° Southeast 389 448 15,100 1,850 Climbing Potomac TRACON
Fri 07:10:00 PM 38.9667 -76.9500 142° Southeast 368 423 16,900 1,835 Climbing Potomac TRACON
Fri 07:11:01 PM 38.8667 -76.9000 159° South 426 490 18,800 824 Climbing Potomac TRACON
Fri 07:12:33 PM 38.7194 -76.8208 157° South 442 509 19,000 513 Climbing Washington Center
Fri 07:13:33 PM 38.6158 -76.7608 156° South 428 493 20,100 992 Climbing Washington Center
Fri 07:14:34 PM 38.5014 -76.7219 165° South 423 487 21,000 1,033 Climbing Washington Center
Fri 07:15:35 PM 38.3828 -76.7067 174° South 429 494 22,200 1,240 Climbing Washington Center
Fri 07:16:35 PM 38.2619 -76.6839 172° South 435 501 23,500 1,361 Climbing Washington Center
Fri 07:17:34 PM 38.1456 -76.6689 174° South 435 501 24,900 1,261 Climbing Washington Center
Fri 07:18:34 PM 38.0225 -76.6539 175° South 435 501 26,000 694 Climbing Washington Center
Fri 07:19:35 PM 37.9017 -76.6522 179° South 440 506 26,300 700 Climbing Washington Center
Fri 07:20:34 PM 37.7764 -76.6689 186° South 440 506 27,400 857 Climbing Washington Center
Fri 07:21:34 PM 37.6531 -76.6831 185° South 445 512 28,000 300 Climbing Washington Center
Fri 07:22:34 PM 37.5278 -76.6994 186° South 450 518 28,000  Level Washington Center
Fri 07:23:35 PM 37.4108 -76.7267 190° South 440 506 28,000 545 Level Washington Center
Fri 07:24:35 PM 37.2978 -76.7719 198° South 429 494 29,100 1,091 Climbing Washington Center
Fri 07:25:36 PM 37.1844 -76.8172 198° South 429 494 30,200 1,109 Climbing Washington Center
Fri 07:26:34 PM 37.0861 -76.8597 199° South 429 494 31,300 958 Climbing Washington Center
Fri 07:27:35 PM 36.9750 -76.9047 198° South 423 487 32,100 1,131 Climbing Washington Center
Fri 07:28:36 PM 36.8514 -76.9547 198° South 423 487 33,600 1,271 Climbing Washington Center
Fri 07:29:33 PM 36.7444 -77.0019 199° South 423 487 34,600 915 Climbing Washington Center
Fri 07:30:34 PM 36.6497 -77.0753 212° Southwest 416 479 35,400 689 Climbing Washington Center
Fri 07:31:35 PM 36.5611 -77.1589 217° Southwest 408 470 36,000 298 Climbing Washington Center
Fri 07:32:35 PM 36.4681 -77.2425 216° Southwest 408 470 36,000  Level Washington Center
Fri 07:33:34 PM 36.3750 -77.3333 218° Southwest 418 481 36,000  Level Washington Center
Fri 07:34:34 PM 36.2797 -77.4189 216° Southwest 430 495 36,000  Level Washington Center
Fri 07:35:33 PM 36.1867 -77.5119 219° Southwest 430 495 36,000  Level Washington Center
Fri 07:36:34 PM 36.0892 -77.6044 217° Southwest 436 502 36,000  Level Washington Center
Fri 07:37:34 PM 35.9875 -77.6944 216° Southwest 442 509 36,000  Level Washington Center
Fri 07:38:35 PM 35.8858 -77.7789 214° Southwest 442 509 36,000  Level Washington Center
Fri 07:39:33 PM 35.7800 -77.8578 211° Southwest 447 514 36,000  Level Washington Center
Fri 07:40:34 PM 35.6783 -77.9369 212° Southwest 447 514 36,000  Level Washington Center
Fri 07:41:34 PM 35.5722 -78.0181 212° Southwest 447 514 36,000  Level Washington Center
Fri 07:42:35 PM 35.4683 -78.1014 213° Southwest 447 514 36,000  Level Washington Center
Fri 07:43:35 PM 35.3622 -78.1797 211° Southwest 447 514 36,000  Level Washington Center
Fri 07:44:36 PM 35.2689 -78.2531 213° Southwest 447 514 36,000  Level Washington Center
Fri 07:45:33 PM 35.1647 -78.3361 213° Southwest 447 514 36,000  Level Washington Center
Fri 07:46:34 PM 35.0608 -78.4161 212° Southwest 447 514 36,000  Level Washington Center
Fri 07:47:35 PM 34.9586 -78.4964 213° Southwest 447 514 36,000  Level Washington Center
Fri 07:49:51 PM 34.7072 -78.6878 212° Southwest 441 507 36,000  Level Jacksonville Center
Fri 07:50:51 PM 34.6014 -78.7661 211° Southwest 441 507 36,000  Level Jacksonville Center
Fri 07:51:51 PM 34.4997 -78.8467 213° Southwest 441 507 36,000 -50 Level Jacksonville Center
Fri 07:52:51 PM 34.3981 -78.9292 214° Southwest 447 514 35,900  Descending Jacksonville Center
Fri 07:53:51 PM 34.2942 -79.0094 213° Southwest 447 514 36,000 50 Climbing Jacksonville Center
Fri 07:54:51 PM 34.1900 -79.0844 211° Southwest 447 514 36,000  Level Jacksonville Center
Fri 07:55:51 PM 34.0900 -79.1589 212° Southwest 442 509 36,000  Level Jacksonville Center
Fri 07:56:51 PM 33.9881 -79.2383 213° Southwest 442 509 36,000 -500 Level Jacksonville Center
Fri 07:57:51 PM 33.8836 -79.3128 211° Southwest 437 503 35,000 -1,100 Descending Jacksonville Center
Fri 07:58:51 PM 33.7836 -79.3869 212° Southwest 437 503 33,800 -1,200 Descending Jacksonville Center
Fri 07:59:51 PM 33.6997 -79.4500 212° Southwest 423 487 32,600 -1,200 Descending Jacksonville Center
Fri 08:00:51 PM 33.6014 -79.5189 210° Southwest 416 479 31,400 -1,200 Descending Jacksonville Center
Fri 08:01:51 PM 33.5033 -79.5947 213° Southwest 416 479 30,200 -700 Descending Jacksonville Center
Fri 08:02:51 PM 33.4069 -79.6656 212° Southwest 416 479 30,000 -100 Descending Jacksonville Center
Fri 08:03:51 PM 33.3106 -79.7336 211° Southwest 416 479 30,000  Level Jacksonville Center
Fri 08:04:51 PM 33.2103 -79.8067 211° Southwest 422 486 30,000  Level Jacksonville Center
Fri 08:05:51 PM 33.0994 -79.8872 211° Southwest 422 486 30,000  Level Jacksonville Center
Fri 08:06:51 PM 32.9947 -79.9603 210° Southwest 427 491 30,000  Level Jacksonville Center
Fri 08:07:51 PM 32.8881 -80.0378 211° Southwest 438 504 30,000  Level Jacksonville Center
Fri 08:08:51 PM 32.7833 -80.1228 214° Southwest 449 517 30,000  Level Jacksonville Center
Fri 08:09:51 PM 32.6828 -80.2022 214° Southwest 449 517 30,000  Level Jacksonville Center
Fri 08:10:51 PM 32.5781 -80.2842 213° Southwest 454 522 30,000  Level Jacksonville Center
Fri 08:11:51 PM 32.4794 -80.3611 213° Southwest 446 513 30,000  Level Jacksonville Center
Fri 08:12:51 PM 32.3786 -80.4375 213° Southwest 440 506 30,000  Level Jacksonville Center
Fri 08:13:51 PM 32.2800 -80.5164 214° Southwest 432 497 30,000 -100 Level Jacksonville Center
Fri 08:14:51 PM 32.1811 -80.5925 213° Southwest 430 495 29,800 -900 Descending Jacksonville Center
Fri 08:15:51 PM 32.0864 -80.6636 212° Southwest 424 488 28,200 -1,550 Descending Jacksonville Center
Fri 08:16:51 PM 32.0000 -80.7319 214° Southwest 419 482 26,700 -1,650 Descending Jacksonville Center
Fri 08:17:51 PM 31.8925 -80.8103 212° Southwest 419 482 24,900 -1,350 Descending Jacksonville Center
Fri 08:18:51 PM 31.7958 -80.8858 214° Southwest 426 490 24,000 -450 Descending Jacksonville Center
Fri 08:19:51 PM 31.7069 -80.9511 212° Southwest 421 484 24,000  Level Jacksonville Center
Fri 08:20:51 PM 31.6039 -81.0314 214° Southwest 413 475 24,000 -650 Level Jacksonville Center
Fri 08:21:51 PM 31.5150 -81.0989 213° Southwest 400 460 22,700 -1,800 Descending Jacksonville Center
Fri 08:22:51 PM 31.4386 -81.1539 212° Southwest 375 432 20,400 -2,550 Descending Jacksonville Center
Fri 08:23:51 PM 31.3475 -81.2264 214° Southwest 362 417 17,600 -2,650 Descending Jacksonville Center
Fri 08:24:51 PM 31.2647 -81.2811 209° Southwest 348 400 15,100 -2,505 Descending Jacksonville Center
Fri 08:25:34 PM 31.2089 -81.3283 216° Southwest 327 376 13,300 -2,500 Descending Jacksonville Center
Fri 08:25:51 PM 31.1903 -81.3408 210° Southwest 338 389 12,600 -2,500 Descending Jacksonville Center
Fri 08:26:34 PM 31.1344 -81.3853 214° Southwest 322 371 10,800 -2,400 Descending Jacksonville Center
Fri 08:26:51 PM 31.1158 -81.3978 210° Southwest 330 380 10,200 -716 Descending Jacksonville Center
Fri 08:27:41 PM 31.0517 -81.4450 212° Southwest 324 373 10,000 -103 Descending Jacksonville Center
Fri 08:28:48 PM 30.9628 -81.5117 213° Southwest 329 379 10,000  Level Jacksonville Center
Fri 08:28:51 PM 30.9628 -81.5117 213° Southwest 336 387 10,000 -100 Level Jacksonville Center
Fri 08:29:48 PM 30.8903 -81.5658 213° Southwest 290 334 9,900 -1,017 Descending Jacksonville Center
Fri 08:30:49 PM 30.8300 -81.6081 211° Southwest 243 280 8,000 -2,016 Descending Jacksonville Center
Fri 08:31:50 PM 30.7719 -81.6522 213° Southwest 242 278 5,800 -2,132 Descending Jacksonville Center
Fri 08:32:50 PM 30.7117 -81.6844 205° Southwest 235 270 3,700 -2,039 Descending Jacksonville Center
Fri 08:33:33 PM 30.6681 -81.7044 202° Southwest 227 261 2,300 -1,672 Descending Jacksonville Center
Fri 08:33:51 PM 30.6558 -81.7167 221° Southwest 239 275 2,000 -228 Descending Jacksonville Center
Fri 08:34:52 PM 30.6058 -81.7436 205° Southwest 171 197 2,000  Level Jacksonville Center

Login

Don't have an account? Register now (free) for customized features, flight alerts, and more!